sensor_id;sensor_type;location;lat;lon;timestamp;pressure;altitude;pressure_sealevel;temperature;humidity
31082;BME280;17737;52.586;13.284;2023-03-31T00:00:51;100045.13;;;10.12;83.44
31082;BME280;17737;52.586;13.284;2023-03-31T00:03:20;100045.59;;;10.15;82.43
31082;BME280;17737;52.586;13.284;2023-03-31T00:05:54;100041.34;;;10.21;82.13
31082;BME280;17737;52.586;13.284;2023-03-31T00:08:26;100040.13;;;10.23;82.38
31082;BME280;17737;52.586;13.284;2023-03-31T00:10:58;100044.03;;;10.21;82.11
31082;BME280;17737;52.586;13.284;2023-03-31T00:13:27;100044.72;;;10.23;81.65
31082;BME280;17737;52.586;13.284;2023-03-31T00:15:57;100048.97;;;10.32;81.00
31082;BME280;17737;52.586;13.284;2023-03-31T00:18:27;100038.75;;;10.27;81.54
31082;BME280;17737;52.586;13.284;2023-03-31T00:21:04;100040.44;;;10.28;81.34
31082;BME280;17737;52.586;13.284;2023-03-31T00:23:36;100031.53;;;10.28;81.63
31082;BME280;17737;52.586;13.284;2023-03-31T00:26:03;100026.16;;;10.28;81.47
31082;BME280;17737;52.586;13.284;2023-03-31T00:28:32;100020.47;;;10.37;81.07
31082;BME280;17737;52.586;13.284;2023-03-31T00:31:01;100015.84;;;10.31;81.18
31082;BME280;17737;52.586;13.284;2023-03-31T00:33:30;100021.03;;;10.33;80.88
31082;BME280;17737;52.586;13.284;2023-03-31T00:35:58;100013.16;;;10.31;81.25
31082;BME280;17737;52.586;13.284;2023-03-31T00:38:32;100012.03;;;10.26;81.32
31082;BME280;17737;52.586;13.284;2023-03-31T00:41:03;100007.00;;;10.23;81.65
31082;BME280;17737;52.586;13.284;2023-03-31T00:43:33;100014.25;;;10.22;81.62
31082;BME280;17737;52.586;13.284;2023-03-31T00:46:10;100014.91;;;10.24;80.98
31082;BME280;17737;52.586;13.284;2023-03-31T00:48:48;100011.94;;;10.19;81.20
31082;BME280;17737;52.586;13.284;2023-03-31T00:51:19;100013.41;;;10.22;81.42
31082;BME280;17737;52.586;13.284;2023-03-31T00:53:52;100002.63;;;10.22;81.47
31082;BME280;17737;52.586;13.284;2023-03-31T00:56:28;100011.47;;;10.16;81.89
31082;BME280;17737;52.586;13.284;2023-03-31T00:59:01;100006.44;;;10.13;81.73
31082;BME280;17737;52.586;13.284;2023-03-31T01:01:34;100003.66;;;10.21;81.00
31082;BME280;17737;52.586;13.284;2023-03-31T01:04:06;99999.13;;;10.21;80.70
31082;BME280;17737;52.586;13.284;2023-03-31T01:06:38;99992.44;;;10.17;80.78
31082;BME280;17737;52.586;13.284;2023-03-31T01:09:15;99984.72;;;10.14;81.24
31082;BME280;17737;52.586;13.284;2023-03-31T01:11:45;99975.69;;;10.07;81.51
31082;BME280;17737;52.586;13.284;2023-03-31T01:14:14;99976.19;;;10.11;81.39
31082;BME280;17737;52.586;13.284;2023-03-31T01:16:43;99978.56;;;10.06;80.67
31082;BME280;17737;52.586;13.284;2023-03-31T01:19:19;99974.38;;;10.03;80.93
31082;BME280;17737;52.586;13.284;2023-03-31T01:22:34;99960.34;;;9.93;81.27
31082;BME280;17737;52.586;13.284;2023-03-31T01:25:51;99967.13;;;9.89;81.47
31082;BME280;17737;52.586;13.284;2023-03-31T01:28:40;99957.28;;;9.96;81.04
31082;BME280;17737;52.586;13.284;2023-03-31T01:41:44;99958.16;;;9.74;81.56
31082;BME280;17737;52.586;13.284;2023-03-31T01:44:27;99960.22;;;9.72;81.33
31082;BME280;17737;52.586;13.284;2023-03-31T01:47:03;99947.84;;;9.63;81.77
31082;BME280;17737;52.586;13.284;2023-03-31T01:49:44;99940.16;;;9.60;82.41
31082;BME280;17737;52.586;13.284;2023-03-31T01:52:20;99948.22;;;9.60;82.22
31082;BME280;17737;52.586;13.284;2023-03-31T01:54:54;99940.16;;;9.60;82.29
31082;BME280;17737;52.586;13.284;2023-03-31T01:57:39;99945.69;;;9.58;82.30
31082;BME280;17737;52.586;13.284;2023-03-31T02:00:15;99933.44;;;9.56;82.54
31082;BME280;17737;52.586;13.284;2023-03-31T02:02:55;99935.47;;;9.54;81.93
31082;BME280;17737;52.586;13.284;2023-03-31T02:05:31;99929.91;;;9.55;82.37
31082;BME280;17737;52.586;13.284;2023-03-31T02:08:07;99924.25;;;9.50;82.39
31082;BME280;17737;52.586;13.284;2023-03-31T02:10:40;99930.09;;;9.54;82.08
31082;BME280;17737;52.586;13.284;2023-03-31T02:13:16;99930.59;;;9.57;81.73
31082;BME280;17737;52.586;13.284;2023-03-31T02:15:50;99925.56;;;9.54;82.46
31082;BME280;17737;52.586;13.284;2023-03-31T02:18:26;99928.06;;;9.56;82.67
31082;BME280;17737;52.586;13.284;2023-03-31T02:20:59;99927.03;;;9.57;82.71
31082;BME280;17737;52.586;13.284;2023-03-31T02:23:30;99926.03;;;9.58;82.34
31082;BME280;17737;52.586;13.284;2023-03-31T02:26:01;99921.13;;;9.61;82.23
31082;BME280;17737;52.586;13.284;2023-03-31T02:28:35;99911.84;;;9.64;82.06
31082;BME280;17737;52.586;13.284;2023-03-31T02:31:11;99909.16;;;9.64;81.87
31082;BME280;17737;52.586;13.284;2023-03-31T02:33:46;99922.44;;;9.65;82.63
31082;BME280;17737;52.586;13.284;2023-03-31T02:36:15;99918.28;;;9.63;81.83
31082;BME280;17737;52.586;13.284;2023-03-31T02:38:49;99916.41;;;9.63;82.15
31082;BME280;17737;52.586;13.284;2023-03-31T02:41:21;99906.09;;;9.67;82.12
31082;BME280;17737;52.586;13.284;2023-03-31T02:43:51;99900.72;;;9.67;82.52
31082;BME280;17737;52.586;13.284;2023-03-31T02:46:20;99901.66;;;9.74;81.83
31082;BME280;17737;52.586;13.284;2023-03-31T02:48:50;99896.09;;;9.76;81.38
31082;BME280;17737;52.586;13.284;2023-03-31T02:51:54;99889.06;;;9.75;81.94
31082;BME280;17737;52.586;13.284;2023-03-31T02:58:23;99885.34;;;9.76;81.94
31082;BME280;17737;52.586;13.284;2023-03-31T03:01:08;99879.63;;;9.79;81.25
31082;BME280;17737;52.586;13.284;2023-03-31T03:03:51;99878.41;;;9.81;81.62
31082;BME280;17737;52.586;13.284;2023-03-31T03:06:36;99885.09;;;9.85;81.29
31082;BME280;17737;52.586;13.284;2023-03-31T03:09:28;99870.97;;;9.83;80.96
31082;BME280;17737;52.586;13.284;2023-03-31T03:12:08;99873.28;;;9.86;81.31
31082;BME280;17737;52.586;13.284;2023-03-31T03:14:46;99869.41;;;9.89;81.43
31082;BME280;17737;52.586;13.284;2023-03-31T03:17:23;99873.75;;;9.90;81.38
31082;BME280;17737;52.586;13.284;2023-03-31T03:19:55;99871.16;;;9.96;81.30
31082;BME280;17737;52.586;13.284;2023-03-31T03:22:27;99865.78;;;9.96;80.68
31082;BME280;17737;52.586;13.284;2023-03-31T03:24:56;99867.84;;;9.94;80.94
31082;BME280;17737;52.586;13.284;2023-03-31T03:27:24;99866.16;;;9.93;81.12
31082;BME280;17737;52.586;13.284;2023-03-31T03:29:51;99860.78;;;9.93;80.82
31082;BME280;17737;52.586;13.284;2023-03-31T03:32:21;99853.81;;;9.99;80.94
31082;BME280;17737;52.586;13.284;2023-03-31T03:34:49;99852.31;;;9.96;81.17
31082;BME280;17737;52.586;13.284;2023-03-31T03:37:17;99839.72;;;9.97;80.54
31082;BME280;17737;52.586;13.284;2023-03-31T03:39:45;99840.28;;;9.92;81.06
31082;BME280;17737;52.586;13.284;2023-03-31T03:42:13;99850.00;;;9.93;81.39
31082;BME280;17737;52.586;13.284;2023-03-31T03:44:41;99846.66;;;9.91;81.75
31082;BME280;17737;52.586;13.284;2023-03-31T03:47:09;99837.22;;;9.95;81.77
31082;BME280;17737;52.586;13.284;2023-03-31T03:49:38;99835.00;;;9.99;80.80
31082;BME280;17737;52.586;13.284;2023-03-31T03:52:06;99841.50;;;10.04;81.50
31082;BME280;17737;52.586;13.284;2023-03-31T03:54:34;99837.69;;;9.99;81.06
31082;BME280;17737;52.586;13.284;2023-03-31T03:57:02;99831.00;;;9.95;82.07
31082;BME280;17737;52.586;13.284;2023-03-31T03:59:30;99833.50;;;9.96;81.51
31082;BME280;17737;52.586;13.284;2023-03-31T04:01:58;99822.91;;;9.95;82.02
31082;BME280;17737;52.586;13.284;2023-03-31T04:04:26;99819.56;;;9.93;82.59
31082;BME280;17737;52.586;13.284;2023-03-31T04:06:56;99815.22;;;9.92;82.65
31082;BME280;17737;52.586;13.284;2023-03-31T04:09:24;99808.66;;;9.94;81.91
31082;BME280;17737;52.586;13.284;2023-03-31T04:11:52;99806.22;;;9.99;81.75
31082;BME280;17737;52.586;13.284;2023-03-31T04:14:20;99808.66;;;9.94;82.56
31082;BME280;17737;52.586;13.284;2023-03-31T04:16:48;99813.00;;;9.95;82.02
31082;BME280;17737;52.586;13.284;2023-03-31T04:19:16;99810.13;;;9.97;82.30
31082;BME280;17737;52.586;13.284;2023-03-31T04:21:44;99806.22;;;9.99;82.36
31082;BME280;17737;52.586;13.284;2023-03-31T04:24:17;99799.53;;;9.95;82.40
31082;BME280;17737;52.586;13.284;2023-03-31T04:26:47;99794.34;;;9.94;82.31
31082;BME280;17737;52.586;13.284;2023-03-31T04:29:16;99791.56;;;10.02;81.66
31082;BME280;17737;52.586;13.284;2023-03-31T04:31:46;99785.72;;;9.98;82.15
31082;BME280;17737;52.586;13.284;2023-03-31T04:34:16;99792.78;;;9.99;82.25
31082;BME280;17737;52.586;13.284;2023-03-31T04:36:45;99786.34;;;10.00;82.29
31082;BME280;17737;52.586;13.284;2023-03-31T04:39:14;99787.66;;;10.04;81.84
31082;BME280;17737;52.586;13.284;2023-03-31T04:41:44;99776.91;;;10.04;81.63
31082;BME280;17737;52.586;13.284;2023-03-31T04:44:12;99778.09;;;10.02;82.05
31082;BME280;17737;52.586;13.284;2023-03-31T04:46:40;99778.94;;;10.02;82.45
31082;BME280;17737;52.586;13.284;2023-03-31T04:49:08;99774.41;;;10.03;82.38
31082;BME280;17737;52.586;13.284;2023-03-31T04:51:36;99766.88;;;9.98;82.81
31082;BME280;17737;52.586;13.284;2023-03-31T04:54:04;99768.56;;;9.99;82.27
31082;BME280;17737;52.586;13.284;2023-03-31T04:56:32;99769.44;;;10.06;82.28
31082;BME280;17737;52.586;13.284;2023-03-31T04:59:02;99764.06;;;10.06;82.12
31082;BME280;17737;52.586;13.284;2023-03-31T05:01:30;99752.41;;;9.99;82.37
31082;BME280;17737;52.586;13.284;2023-03-31T05:04:02;99757.41;;;10.02;82.10
31082;BME280;17737;52.586;13.284;2023-03-31T05:06:31;99745.41;;;10.05;82.17
31082;BME280;17737;52.586;13.284;2023-03-31T05:08:59;99744.41;;;10.06;81.91
31082;BME280;17737;52.586;13.284;2023-03-31T05:11:27;99748.22;;;9.97;82.31
31082;BME280;17737;52.586;13.284;2023-03-31T05:13:55;99742.84;;;9.97;82.92
31082;BME280;17737;52.586;13.284;2023-03-31T05:16:25;99736.84;;;9.80;83.38
31082;BME280;17737;52.586;13.284;2023-03-31T05:18:53;99739.09;;;9.77;83.36
31082;BME280;17737;52.586;13.284;2023-03-31T05:21:21;99733.44;;;9.72;83.43
31082;BME280;17737;52.586;13.284;2023-03-31T05:23:49;99725.56;;;9.70;83.55
31082;BME280;17737;52.586;13.284;2023-03-31T05:26:17;99728.16;;;9.63;84.31
31082;BME280;17737;52.586;13.284;2023-03-31T05:28:45;99724.91;;;9.68;84.13
31082;BME280;17737;52.586;13.284;2023-03-31T05:31:13;99725.28;;;9.65;83.57
31082;BME280;17737;52.586;13.284;2023-03-31T05:33:42;99720.81;;;9.72;83.29
31082;BME280;17737;52.586;13.284;2023-03-31T05:36:11;99723.50;;;9.72;83.15
31082;BME280;17737;52.586;13.284;2023-03-31T05:38:41;99709.69;;;9.75;82.94
31082;BME280;17737;52.586;13.284;2023-03-31T05:41:09;99718.88;;;9.81;83.35
31082;BME280;17737;52.586;13.284;2023-03-31T05:43:37;99709.84;;;9.88;82.87
31082;BME280;17737;52.586;13.284;2023-03-31T05:46:06;99709.25;;;9.93;82.26
31082;BME280;17737;52.586;13.284;2023-03-31T05:48:34;99703.13;;;9.99;82.15
31082;BME280;17737;52.586;13.284;2023-03-31T05:51:04;99710.56;;;10.11;81.74
31082;BME280;17737;52.586;13.284;2023-03-31T05:53:35;99698.25;;;10.23;81.08
31082;BME280;17737;52.586;13.284;2023-03-31T05:56:04;99700.94;;;10.23;81.58
31082;BME280;17737;52.586;13.284;2023-03-31T05:58:34;99699.72;;;10.26;80.84
31082;BME280;17737;52.586;13.284;2023-03-31T06:01:03;99694.16;;;10.27;80.89
31082;BME280;17737;52.586;13.284;2023-03-31T06:03:34;99691.53;;;10.34;80.11
31082;BME280;17737;52.586;13.284;2023-03-31T06:06:06;99688.28;;;10.38;80.61
31082;BME280;17737;52.586;13.284;2023-03-31T06:08:35;99689.28;;;10.37;80.12
31082;BME280;17737;52.586;13.284;2023-03-31T06:11:04;99688.28;;;10.38;80.02
31082;BME280;17737;52.586;13.284;2023-03-31T06:13:33;99681.97;;;10.31;80.43
31082;BME280;17737;52.586;13.284;2023-03-31T06:16:02;99676.41;;;10.33;80.11
31082;BME280;17737;52.586;13.284;2023-03-31T06:18:32;99682.78;;;10.32;80.15
31082;BME280;17737;52.586;13.284;2023-03-31T06:21:02;99672.81;;;10.47;80.05
31082;BME280;17737;52.586;13.284;2023-03-31T06:23:33;99670.09;;;10.68;79.08
31082;BME280;17737;52.586;13.284;2023-03-31T06:26:04;99675.00;;;10.85;78.49
31082;BME280;17737;52.586;13.284;2023-03-31T06:28:33;99662.16;;;10.88;78.01
31082;BME280;17737;52.586;13.284;2023-03-31T06:31:04;99661.28;;;10.80;77.98
31082;BME280;17737;52.586;13.284;2023-03-31T06:33:34;99657.78;;;10.86;78.13
31082;BME280;17737;52.586;13.284;2023-03-31T06:36:05;99659.91;;;10.91;78.48
31082;BME280;17737;52.586;13.284;2023-03-31T06:38:34;99655.78;;;10.95;78.46
31082;BME280;17737;52.586;13.284;2023-03-31T06:41:03;99657.50;;;11.03;77.55
31082;BME280;17737;52.586;13.284;2023-03-31T06:43:33;99648.16;;;11.05;77.16
31082;BME280;17737;52.586;13.284;2023-03-31T06:46:01;99656.06;;;11.07;77.73
31082;BME280;17737;52.586;13.284;2023-03-31T06:48:30;99660.72;;;11.26;77.02
31082;BME280;17737;52.586;13.284;2023-03-31T06:50:59;99653.53;;;11.33;76.63
31082;BME280;17737;52.586;13.284;2023-03-31T06:53:30;99650.28;;;11.44;76.10
31082;BME280;17737;52.586;13.284;2023-03-31T06:55:59;99644.69;;;11.52;75.88
31082;BME280;17737;52.586;13.284;2023-03-31T06:58:28;99640.69;;;11.88;75.18
31082;BME280;17737;52.586;13.284;2023-03-31T07:00:57;99641.56;;;12.02;74.07
31082;BME280;17737;52.586;13.284;2023-03-31T07:03:28;99638.13;;;12.34;73.52
31082;BME280;17737;52.586;13.284;2023-03-31T07:05:56;99628.31;;;12.20;72.75
31082;BME280;17737;52.586;13.284;2023-03-31T07:08:24;99629.34;;;12.13;72.83
31082;BME280;17737;52.586;13.284;2023-03-31T07:10:55;99631.25;;;12.58;72.12
31082;BME280;17737;52.586;13.284;2023-03-31T07:13:25;99626.69;;;12.71;70.74
31082;BME280;17737;52.586;13.284;2023-03-31T07:15:54;99619.38;;;12.72;70.85
31082;BME280;17737;52.586;13.284;2023-03-31T07:18:22;99620.44;;;12.45;71.02
31082;BME280;17737;52.586;13.284;2023-03-31T07:21:00;99611.31;;;12.52;71.47
31082;BME280;17737;52.586;13.284;2023-03-31T07:23:31;99606.91;;;12.77;70.51
31082;BME280;17737;52.586;13.284;2023-03-31T07:26:00;99609.22;;;12.67;71.10
31082;BME280;17737;52.586;13.284;2023-03-31T07:28:28;99606.50;;;12.87;70.16
31082;BME280;17737;52.586;13.284;2023-03-31T07:30:57;99613.59;;;12.68;70.57
31082;BME280;17737;52.586;13.284;2023-03-31T07:33:25;99610.88;;;12.75;70.92
31082;BME280;17737;52.586;13.284;2023-03-31T07:35:53;99609.63;;;12.90;70.79
31082;BME280;17737;52.586;13.284;2023-03-31T07:38:38;99608.97;;;13.08;70.18
31082;BME280;17737;52.586;13.284;2023-03-31T07:41:10;99605.84;;;12.91;69.77
31082;BME280;17737;52.586;13.284;2023-03-31T07:43:39;99607.09;;;12.89;69.51
31082;BME280;17737;52.586;13.284;2023-03-31T07:46:13;99599.81;;;12.89;69.63
31082;BME280;17737;52.586;13.284;2023-03-31T07:48:43;99598.38;;;12.87;69.97
31082;BME280;17737;52.586;13.284;2023-03-31T07:51:13;99596.94;;;13.04;69.41
31082;BME280;17737;52.586;13.284;2023-03-31T07:53:41;99594.22;;;13.10;68.96
31082;BME280;17737;52.586;13.284;2023-03-31T07:56:11;99594.41;;;12.96;69.37
31082;BME280;17737;52.586;13.284;2023-03-31T07:58:39;99589.63;;;12.98;69.74
31082;BME280;17737;52.586;13.284;2023-03-31T08:01:07;99581.84;;;13.34;68.37
31082;BME280;17737;52.586;13.284;2023-03-31T08:03:37;99580.75;;;13.42;67.73
31082;BME280;17737;52.586;13.284;2023-03-31T08:06:05;99581.16;;;13.45;67.93
31082;BME280;17737;52.586;13.284;2023-03-31T08:08:33;99578.50;;;13.76;68.03
31082;BME280;17737;52.586;13.284;2023-03-31T08:11:04;99583.97;;;13.70;67.21
31082;BME280;17737;52.586;13.284;2023-03-31T08:13:33;99577.72;;;13.69;67.38
31082;BME280;17737;52.586;13.284;2023-03-31T08:16:02;99575.88;;;13.63;67.67
31082;BME280;17737;52.586;13.284;2023-03-31T08:18:30;99571.91;;;13.66;66.76
31082;BME280;17737;52.586;13.284;2023-03-31T08:20:58;99565.84;;;14.01;66.39
31082;BME280;17737;52.586;13.284;2023-03-31T08:23:26;99576.56;;;13.90;66.32
31082;BME280;17737;52.586;13.284;2023-03-31T08:26:06;99564.59;;;14.04;66.25
31082;BME280;17737;52.586;13.284;2023-03-31T08:28:37;99557.16;;;13.93;66.02
31082;BME280;17737;52.586;13.284;2023-03-31T08:31:05;99557.75;;;13.70;66.31
31082;BME280;17737;52.586;13.284;2023-03-31T08:33:36;99548.25;;;14.17;65.82
31082;BME280;17737;52.586;13.284;2023-03-31T08:36:06;99543.13;;;14.58;64.49
31082;BME280;17737;52.586;13.284;2023-03-31T08:38:37;99544.41;;;14.56;64.69
31082;BME280;17737;52.586;13.284;2023-03-31T08:41:15;99541.56;;;14.44;64.11
31082;BME280;17737;52.586;13.284;2023-03-31T08:44:02;99534.47;;;14.68;63.73
31082;BME280;17737;52.586;13.284;2023-03-31T08:46:35;99529.25;;;14.48;63.37
31082;BME280;17737;52.586;13.284;2023-03-31T08:49:06;99522.06;;;14.11;63.98
31082;BME280;17737;52.586;13.284;2023-03-31T08:51:40;99514.66;;;13.93;64.63
31082;BME280;17737;52.586;13.284;2023-03-31T08:54:16;99520.41;;;13.79;65.33
31082;BME280;17737;52.586;13.284;2023-03-31T08:56:52;99513.91;;;14.11;64.87
31082;BME280;17737;52.586;13.284;2023-03-31T08:59:26;99510.53;;;14.15;64.33
31082;BME280;17737;52.586;13.284;2023-03-31T09:02:03;99503.53;;;14.08;64.71
31082;BME280;17737;52.586;13.284;2023-03-31T09:07:55;99503.63;;;14.44;63.38
31082;BME280;17737;52.586;13.284;2023-03-31T09:10:41;99495.03;;;14.72;64.39
31082;BME280;17737;52.586;13.284;2023-03-31T09:13:52;99495.00;;;14.90;63.46
31082;BME280;17737;52.586;13.284;2023-03-31T09:16:34;99498.81;;;15.36;62.72
31082;BME280;17737;52.586;13.284;2023-03-31T09:19:13;99493.09;;;15.44;61.62
31082;BME280;17737;52.586;13.284;2023-03-31T09:21:47;99488.31;;;15.10;61.60
31082;BME280;17737;52.586;13.284;2023-03-31T09:24:20;99490.63;;;15.07;62.22
31082;BME280;17737;52.586;13.284;2023-03-31T09:26:53;99487.41;;;15.16;61.78
31082;BME280;17737;52.586;13.284;2023-03-31T09:29:29;99473.78;;;14.69;61.85
31082;BME280;17737;52.586;13.284;2023-03-31T09:32:13;99473.97;;;14.31;62.67
31082;BME280;17737;52.586;13.284;2023-03-31T09:34:44;99459.50;;;14.37;62.75
31082;BME280;17737;52.586;13.284;2023-03-31T09:37:14;99462.13;;;14.25;62.68
31082;BME280;17737;52.586;13.284;2023-03-31T09:39:42;99458.72;;;14.36;62.95
31082;BME280;17737;52.586;13.284;2023-03-31T09:42:12;99456.38;;;14.58;62.15
31082;BME280;17737;52.586;13.284;2023-03-31T09:44:43;99453.97;;;14.68;62.06
31082;BME280;17737;52.586;13.284;2023-03-31T09:47:16;99444.75;;;15.05;61.45
31082;BME280;17737;52.586;13.284;2023-03-31T09:49:52;99434.66;;;15.12;60.54
31082;BME280;17737;52.586;13.284;2023-03-31T09:52:26;99434.38;;;15.02;60.73
31082;BME280;17737;52.586;13.284;2023-03-31T09:54:58;99429.63;;;14.80;61.83
31082;BME280;17737;52.586;13.284;2023-03-31T09:57:30;99422.34;;;14.44;62.46
31082;BME280;17737;52.586;13.284;2023-03-31T10:00:13;99422.19;;;14.75;61.81
31082;BME280;17737;52.586;13.284;2023-03-31T10:02:48;99419.22;;;15.13;60.84
31082;BME280;17737;52.586;13.284;2023-03-31T10:05:21;99412.66;;;15.02;60.89
31082;BME280;17737;52.586;13.284;2023-03-31T10:08:23;99408.03;;;14.91;60.79
31082;BME280;17737;52.586;13.284;2023-03-31T10:10:55;99411.81;;;14.72;61.55
31082;BME280;17737;52.586;13.284;2023-03-31T10:13:26;99410.31;;;14.58;62.01
31082;BME280;17737;52.586;13.284;2023-03-31T10:16:04;99403.16;;;14.64;62.16
31082;BME280;17737;52.586;13.284;2023-03-31T10:18:37;99389.06;;;14.37;62.67
31082;BME280;17737;52.586;13.284;2023-03-31T10:21:17;99397.44;;;14.11;63.75
31082;BME280;17737;52.586;13.284;2023-03-31T10:23:49;99386.47;;;14.24;63.65
31082;BME280;17737;52.586;13.284;2023-03-31T10:26:20;99388.00;;;14.56;63.27
31082;BME280;17737;52.586;13.284;2023-03-31T10:28:52;99381.63;;;14.98;62.87
31082;BME280;17737;52.586;13.284;2023-03-31T10:31:25;99370.19;;;14.96;63.64
31082;BME280;17737;52.586;13.284;2023-03-31T10:34:04;99372.97;;;14.90;63.28
31082;BME280;17737;52.586;13.284;2023-03-31T10:36:34;99371.13;;;14.54;63.78
31082;BME280;17737;52.586;13.284;2023-03-31T10:39:05;99377.25;;;13.89;65.98
31082;BME280;17737;52.586;13.284;2023-03-31T10:41:34;99380.00;;;13.58;69.44
31082;BME280;17737;52.586;13.284;2023-03-31T10:44:03;99364.91;;;13.44;71.92
31082;BME280;17737;52.586;13.284;2023-03-31T10:46:42;99369.09;;;13.46;72.63
31082;BME280;17737;52.586;13.284;2023-03-31T10:49:23;99364.69;;;13.45;72.82
31082;BME280;17737;52.586;13.284;2023-03-31T10:51:54;99364.88;;;13.75;72.70
31082;BME280;17737;52.586;13.284;2023-03-31T10:54:23;99362.94;;;13.82;71.51
31082;BME280;17737;52.586;13.284;2023-03-31T10:56:54;99352.28;;;14.05;71.95
31082;BME280;17737;52.586;13.284;2023-03-31T10:59:37;99354.13;;;14.11;70.61
31082;BME280;17737;52.586;13.284;2023-03-31T11:05:54;99349.72;;;14.10;70.14
31082;BME280;17737;52.586;13.284;2023-03-31T11:08:38;99347.19;;;14.15;69.40
31082;BME280;17737;52.586;13.284;2023-03-31T11:11:40;99355.97;;;14.35;68.66
31082;BME280;17737;52.586;13.284;2023-03-31T11:14:24;99341.69;;;14.03;68.75
31082;BME280;17737;52.586;13.284;2023-03-31T11:17:08;99334.59;;;13.84;67.92
31082;BME280;17737;52.586;13.284;2023-03-31T11:19:54;99329.13;;;14.09;67.32
31082;BME280;17737;52.586;13.284;2023-03-31T11:22:42;99324.63;;;14.39;66.14
31082;BME280;17737;52.586;13.284;2023-03-31T11:25:32;99321.13;;;14.68;66.33
31082;BME280;17737;52.586;13.284;2023-03-31T11:28:21;99310.53;;;14.67;66.21
31082;BME280;17737;52.586;13.284;2023-03-31T11:30:57;99316.63;;;14.62;66.21
31082;BME280;17737;52.586;13.284;2023-03-31T11:33:47;99301.53;;;15.25;65.06
31082;BME280;17737;52.586;13.284;2023-03-31T11:36:38;99301.34;;;15.96;63.76
31082;BME280;17737;52.586;13.284;2023-03-31T11:39:37;99290.19;;;16.21;61.51
31082;BME280;17737;52.586;13.284;2023-03-31T11:42:15;99277.81;;;15.90;61.68
31082;BME280;17737;52.586;13.284;2023-03-31T11:44:51;99283.03;;;15.34;61.89
31082;BME280;17737;52.586;13.284;2023-03-31T11:47:23;99270.09;;;15.06;63.64
31082;BME280;17737;52.586;13.284;2023-03-31T11:49:58;99261.63;;;15.26;62.57
31082;BME280;17737;52.586;13.284;2023-03-31T11:52:33;99264.34;;;15.26;63.02
31082;BME280;17737;52.586;13.284;2023-03-31T11:55:11;99254.44;;;15.31;62.89
31082;BME280;17737;52.586;13.284;2023-03-31T11:57:45;99259.25;;;14.65;64.03
31082;BME280;17737;52.586;13.284;2023-03-31T12:00:27;99250.72;;;14.50;65.42
31082;BME280;17737;52.586;13.284;2023-03-31T12:03:03;99242.00;;;14.89;65.11
31082;BME280;17737;52.586;13.284;2023-03-31T12:05:41;99246.41;;;14.61;64.99
31082;BME280;17737;52.586;13.284;2023-03-31T12:08:16;99244.81;;;14.53;67.24
31082;BME280;17737;52.586;13.284;2023-03-31T12:10:55;99251.59;;;13.36;74.53
31082;BME280;17737;52.586;13.284;2023-03-31T12:13:38;99245.19;;;12.74;78.92
31082;BME280;17737;52.586;13.284;2023-03-31T12:16:14;99248.66;;;12.50;79.69
31082;BME280;17737;52.586;13.284;2023-03-31T12:18:56;99240.94;;;12.54;82.17
31082;BME280;17737;52.586;13.284;2023-03-31T12:21:29;99240.47;;;12.32;82.99
31082;BME280;17737;52.586;13.284;2023-03-31T12:24:01;99231.81;;;12.17;85.52
31082;BME280;17737;52.586;13.284;2023-03-31T12:26:33;99237.41;;;12.22;86.70
31082;BME280;17737;52.586;13.284;2023-03-31T12:29:20;99232.66;;;12.11;87.28
31082;BME280;17737;52.586;13.284;2023-03-31T12:31:54;99226.06;;;12.07;87.86
31082;BME280;17737;52.586;13.284;2023-03-31T12:34:27;99225.34;;;12.18;88.27
31082;BME280;17737;52.586;13.284;2023-03-31T12:37:09;99218.91;;;12.19;88.10
31082;BME280;17737;52.586;13.284;2023-03-31T12:40:04;99209.81;;;12.51;87.56
31082;BME280;17737;52.586;13.284;2023-03-31T12:43:04;99207.84;;;12.89;86.14
31082;BME280;17737;52.586;13.284;2023-03-31T12:45:45;99208.16;;;13.06;84.45
31082;BME280;17737;52.586;13.284;2023-03-31T12:48:59;99201.41;;;13.15;84.09
31082;BME280;17737;52.586;13.284;2023-03-31T12:51:54;99203.81;;;13.48;84.46
31082;BME280;17737;52.586;13.284;2023-03-31T12:55:04;99194.25;;;13.45;81.88
31082;BME280;17737;52.586;13.284;2023-03-31T12:57:50;99195.59;;;13.36;81.68
31082;BME280;17737;52.586;13.284;2023-03-31T13:00:21;99190.44;;;13.53;84.30
31082;BME280;17737;52.586;13.284;2023-03-31T13:06:10;99177.00;;;13.03;79.75
31082;BME280;17737;52.586;13.284;2023-03-31T13:08:59;99168.38;;;12.88;80.91
31082;BME280;17737;52.586;13.284;2023-03-31T13:11:54;99164.22;;;12.86;81.92
31082;BME280;17737;52.586;13.284;2023-03-31T13:14:26;99176.06;;;12.60;80.72
31082;BME280;17737;52.586;13.284;2023-03-31T13:17:11;99167.41;;;12.21;80.40
31082;BME280;17737;52.586;13.284;2023-03-31T13:19:51;99170.13;;;12.21;82.00
31082;BME280;17737;52.586;13.284;2023-03-31T13:22:27;99169.88;;;12.22;84.22
31082;BME280;17737;52.586;13.284;2023-03-31T13:28:25;99171.63;;;12.10;85.94
31082;BME280;17737;52.586;13.284;2023-03-31T13:31:11;99174.13;;;12.05;85.70
31082;BME280;17737;52.586;13.284;2023-03-31T13:33:52;99170.78;;;11.65;85.33
31082;BME280;17737;52.586;13.284;2023-03-31T13:40:12;99178.72;;;11.34;87.03
31082;BME280;17737;52.586;13.284;2023-03-31T13:43:24;99173.94;;;11.36;88.71
31082;BME280;17737;52.586;13.284;2023-03-31T13:46:20;99177.91;;;11.21;88.36
31082;BME280;17737;52.586;13.284;2023-03-31T13:52:36;99171.72;;;11.14;89.35
31082;BME280;17737;52.586;13.284;2023-03-31T13:55:35;99160.97;;;10.88;88.26
31082;BME280;17737;52.586;13.284;2023-03-31T13:58:37;99166.56;;;10.99;89.49
31082;BME280;17737;52.586;13.284;2023-03-31T14:01:35;99157.22;;;11.02;89.37
31082;BME280;17737;52.586;13.284;2023-03-31T14:04:28;99159.31;;;10.86;88.85
31082;BME280;17737;52.586;13.284;2023-03-31T14:07:07;99163.47;;;10.82;88.85